sensor_id;sensor_type;location;lat;lon;timestamp;temperature;humidity
73572;DHT22;61854;48.510;-2.770;2022-08-19T09:51:44;21.70;68.70
73572;DHT22;61854;48.510;-2.770;2022-08-19T09:54:11;21.80;69.00
73572;DHT22;61854;48.510;-2.770;2022-08-19T09:56:36;21.80;69.00
73572;DHT22;61854;48.510;-2.770;2022-08-19T10:01:30;21.90;67.50
73572;DHT22;61854;48.510;-2.770;2022-08-19T10:08:52;21.80;67.70
73572;DHT22;61854;48.510;-2.770;2022-08-19T10:11:18;21.80;68.60
73572;DHT22;61854;48.510;-2.770;2022-08-19T10:13:44;21.90;68.80
73572;DHT22;61854;48.510;-2.770;2022-08-19T10:16:17;22.00;68.00
73572;DHT22;61854;48.510;-2.770;2022-08-19T10:18:44;22.00;68.30
73572;DHT22;61854;48.510;-2.770;2022-08-19T10:21:15;22.10;68.00
73572;DHT22;61854;48.510;-2.770;2022-08-19T10:23:43;22.10;68.10
73572;DHT22;61854;48.510;-2.770;2022-08-19T10:26:19;22.00;69.50
73572;DHT22;61854;48.510;-2.770;2022-08-19T10:28:45;22.00;69.30
73572;DHT22;61854;48.510;-2.770;2022-08-19T10:31:14;22.10;68.90
73572;DHT22;61854;48.510;-2.770;2022-08-19T10:33:41;22.30;67.60
73572;DHT22;61854;48.510;-2.770;2022-08-19T10:36:12;22.50;67.70
73572;DHT22;61854;48.510;-2.770;2022-08-19T10:38:41;22.70;67.30
73572;DHT22;61854;48.510;-2.770;2022-08-19T10:41:11;22.80;66.30
73572;DHT22;61854;48.510;-2.770;2022-08-19T10:43:38;22.80;66.30
73572;DHT22;61854;48.510;-2.770;2022-08-19T10:46:06;22.70;66.70
73572;DHT22;61854;48.510;-2.770;2022-08-19T10:48:32;22.70;67.00
73572;DHT22;61854;48.510;-2.770;2022-08-19T10:50:58;22.70;66.70
73572;DHT22;61854;48.510;-2.770;2022-08-19T10:53:43;22.70;66.40
73572;DHT22;61854;48.510;-2.770;2022-08-19T10:56:08;22.80;65.90
73572;DHT22;61854;48.510;-2.770;2022-08-19T10:58:52;22.80;66.30
73572;DHT22;61854;48.510;-2.770;2022-08-19T11:45:26;19.60;85.20
73572;DHT22;61854;48.510;-2.770;2022-08-19T11:47:52;19.60;86.80
73572;DHT22;61854;48.510;-2.770;2022-08-19T11:50:19;19.40;87.70
73572;DHT22;61854;48.510;-2.770;2022-08-19T11:52:45;19.20;85.70
73572;DHT22;61854;48.510;-2.770;2022-08-19T11:55:13;19.20;85.70
73572;DHT22;61854;48.510;-2.770;2022-08-19T11:57:39;19.00;86.80
73572;DHT22;61854;48.510;-2.770;2022-08-19T12:00:07;19.00;88.00
73572;DHT22;61854;48.510;-2.770;2022-08-19T12:02:33;18.90;88.30
73572;DHT22;61854;48.510;-2.770;2022-08-19T12:04:59;18.80;87.50
73572;DHT22;61854;48.510;-2.770;2022-08-19T12:07:27;18.70;89.60
73572;DHT22;61854;48.510;-2.770;2022-08-19T12:09:54;18.80;90.20
73572;DHT22;61854;48.510;-2.770;2022-08-19T12:12:19;18.80;89.80
73572;DHT22;61854;48.510;-2.770;2022-08-19T12:14:46;18.90;89.70
73572;DHT22;61854;48.510;-2.770;2022-08-19T12:17:12;18.90;88.80
73572;DHT22;61854;48.510;-2.770;2022-08-19T12:19:38;19.00;89.10
73572;DHT22;61854;48.510;-2.770;2022-08-19T12:22:04;19.10;88.00
73572;DHT22;61854;48.510;-2.770;2022-08-19T12:24:32;19.10;87.80
73572;DHT22;61854;48.510;-2.770;2022-08-19T12:26:58;19.20;85.30
73572;DHT22;61854;48.510;-2.770;2022-08-19T12:29:27;19.30;86.00
73572;DHT22;61854;48.510;-2.770;2022-08-19T12:31:54;19.30;84.40
73572;DHT22;61854;48.510;-2.770;2022-08-19T12:34:26;19.30;84.40
73572;DHT22;61854;48.510;-2.770;2022-08-19T12:36:51;19.40;84.90
73572;DHT22;61854;48.510;-2.770;2022-08-19T12:39:17;19.40;83.80
73572;DHT22;61854;48.510;-2.770;2022-08-19T12:41:43;19.50;82.00
73572;DHT22;61854;48.510;-2.770;2022-08-19T12:44:08;19.60;84.80
73572;DHT22;61854;48.510;-2.770;2022-08-19T12:46:34;19.70;80.20
73572;DHT22;61854;48.510;-2.770;2022-08-19T12:48:59;19.80;81.50
73572;DHT22;61854;48.510;-2.770;2022-08-19T12:51:25;20.00;81.60
73572;DHT22;61854;48.510;-2.770;2022-08-19T12:53:52;20.00;79.10
73572;DHT22;61854;48.510;-2.770;2022-08-19T12:56:17;19.90;79.10
73572;DHT22;61854;48.510;-2.770;2022-08-19T12:58:44;19.90;79.80
73572;DHT22;61854;48.510;-2.770;2022-08-19T13:01:14;19.90;79.70
73572;DHT22;61854;48.510;-2.770;2022-08-19T13:03:42;19.90;77.90
73572;DHT22;61854;48.510;-2.770;2022-08-19T13:06:09;19.90;80.40
73572;DHT22;61854;48.510;-2.770;2022-08-19T13:08:35;20.00;79.60
73572;DHT22;61854;48.510;-2.770;2022-08-19T13:11:18;20.00;79.40
73572;DHT22;61854;48.510;-2.770;2022-08-19T13:13:47;20.10;79.70
73572;DHT22;61854;48.510;-2.770;2022-08-19T13:16:13;20.20;77.50
73572;DHT22;61854;48.510;-2.770;2022-08-19T13:18:41;20.30;77.60
73572;DHT22;61854;48.510;-2.770;2022-08-19T13:21:08;20.30;75.50
73572;DHT22;61854;48.510;-2.770;2022-08-19T13:23:35;20.40;75.80
73572;DHT22;61854;48.510;-2.770;2022-08-19T13:26:05;20.50;73.40
73572;DHT22;61854;48.510;-2.770;2022-08-19T13:28:32;20.60;77.90
73572;DHT22;61854;48.510;-2.770;2022-08-19T13:31:19;20.80;74.10
73572;DHT22;61854;48.510;-2.770;2022-08-19T13:34:04;20.90;71.90
73572;DHT22;61854;48.510;-2.770;2022-08-19T13:36:32;21.00;77.50
73572;DHT22;61854;48.510;-2.770;2022-08-19T13:38:58;21.10;73.50
73572;DHT22;61854;48.510;-2.770;2022-08-19T13:41:24;21.40;72.80
73572;DHT22;61854;48.510;-2.770;2022-08-19T13:43:50;21.80;70.80
73572;DHT22;61854;48.510;-2.770;2022-08-19T13:46:16;22.20;68.70
73572;DHT22;61854;48.510;-2.770;2022-08-19T13:48:42;22.80;66.60
73572;DHT22;61854;48.510;-2.770;2022-08-19T13:51:08;22.60;60.40
73572;DHT22;61854;48.510;-2.770;2022-08-19T13:53:36;22.60;63.90
73572;DHT22;61854;48.510;-2.770;2022-08-19T13:56:09;23.40;64.40
73572;DHT22;61854;48.510;-2.770;2022-08-19T13:58:35;24.40;57.70
73572;DHT22;61854;48.510;-2.770;2022-08-19T14:01:01;24.90;56.10
73572;DHT22;61854;48.510;-2.770;2022-08-19T14:03:27;25.50;55.10
73572;DHT22;61854;48.510;-2.770;2022-08-19T14:05:53;25.90;56.20
73572;DHT22;61854;48.510;-2.770;2022-08-19T14:08:19;26.00;55.10
73572;DHT22;61854;48.510;-2.770;2022-08-19T14:10:45;26.30;54.60
73572;DHT22;61854;48.510;-2.770;2022-08-19T14:13:15;26.70;52.20
73572;DHT22;61854;48.510;-2.770;2022-08-19T14:15:41;27.30;52.40
73572;DHT22;61854;48.510;-2.770;2022-08-19T14:18:07;27.80;46.30
73572;DHT22;61854;48.510;-2.770;2022-08-19T14:20:35;27.90;47.00
73572;DHT22;61854;48.510;-2.770;2022-08-19T14:23:01;28.00;51.20
73572;DHT22;61854;48.510;-2.770;2022-08-19T14:25:29;28.30;50.90
73572;DHT22;61854;48.510;-2.770;2022-08-19T14:27:55;28.20;46.10
73572;DHT22;61854;48.510;-2.770;2022-08-19T14:30:27;27.70;49.70
73572;DHT22;61854;48.510;-2.770;2022-08-19T14:32:54;28.20;50.40
73572;DHT22;61854;48.510;-2.770;2022-08-19T14:35:21;29.00;45.00
73572;DHT22;61854;48.510;-2.770;2022-08-19T14:37:48;29.30;44.00
73572;DHT22;61854;48.510;-2.770;2022-08-19T14:40:18;29.60;40.10
73572;DHT22;61854;48.510;-2.770;2022-08-19T14:42:46;29.40;41.40
73572;DHT22;61854;48.510;-2.770;2022-08-19T14:45:13;29.40;41.80
73572;DHT22;61854;48.510;-2.770;2022-08-19T14:47:39;29.50;40.50
73572;DHT22;61854;48.510;-2.770;2022-08-19T14:50:10;29.40;40.30
73572;DHT22;61854;48.510;-2.770;2022-08-19T14:52:36;29.10;38.70
73572;DHT22;61854;48.510;-2.770;2022-08-19T14:55:03;29.60;55.00
73572;DHT22;61854;48.510;-2.770;2022-08-19T14:57:30;30.10;46.10
73572;DHT22;61854;48.510;-2.770;2022-08-19T14:59:55;30.30;40.20
73572;DHT22;61854;48.510;-2.770;2022-08-19T15:04:48;31.10;36.90
73572;DHT22;61854;48.510;-2.770;2022-08-19T15:07:14;30.80;38.60
73572;DHT22;61854;48.510;-2.770;2022-08-19T15:09:39;31.20;43.90
73572;DHT22;61854;48.510;-2.770;2022-08-19T15:12:05;31.50;39.10
73572;DHT22;61854;48.510;-2.770;2022-08-19T15:14:31;31.70;43.30
73572;DHT22;61854;48.510;-2.770;2022-08-19T15:16:59;32.20;39.10
73572;DHT22;61854;48.510;-2.770;2022-08-19T15:19:24;32.10;38.80
73572;DHT22;61854;48.510;-2.770;2022-08-19T15:21:50;31.90;39.50
73572;DHT22;61854;48.510;-2.770;2022-08-19T15:24:16;31.90;37.20
73572;DHT22;61854;48.510;-2.770;2022-08-19T15:26:42;31.90;36.80
73572;DHT22;61854;48.510;-2.770;2022-08-19T15:29:08;32.00;40.30
73572;DHT22;61854;48.510;-2.770;2022-08-19T15:51:31;30.50;37.80
73572;DHT22;61854;48.510;-2.770;2022-08-19T15:53:59;31.00;40.00
73572;DHT22;61854;48.510;-2.770;2022-08-19T15:56:25;31.50;39.70
73572;DHT22;61854;48.510;-2.770;2022-08-19T15:58:51;31.90;34.80
73572;DHT22;61854;48.510;-2.770;2022-08-19T16:01:35;31.80;38.20
73572;DHT22;61854;48.510;-2.770;2022-08-19T16:04:19;32.20;37.30
73572;DHT22;61854;48.510;-2.770;2022-08-19T16:07:03;32.10;35.60
73572;DHT22;61854;48.510;-2.770;2022-08-19T16:09:30;32.40;39.70
73572;DHT22;61854;48.510;-2.770;2022-08-19T16:12:02;32.30;34.10
73572;DHT22;61854;48.510;-2.770;2022-08-19T16:14:31;32.40;36.20
73572;DHT22;61854;48.510;-2.770;2022-08-19T16:16:56;32.60;36.60
73572;DHT22;61854;48.510;-2.770;2022-08-19T16:19:22;32.50;35.60
73572;DHT22;61854;48.510;-2.770;2022-08-19T16:21:50;32.40;37.40
73572;DHT22;61854;48.510;-2.770;2022-08-19T16:24:21;32.90;35.80
73572;DHT22;61854;48.510;-2.770;2022-08-19T16:26:47;33.30;39.70
73572;DHT22;61854;48.510;-2.770;2022-08-19T16:29:14;33.40;35.60
73572;DHT22;61854;48.510;-2.770;2022-08-19T16:31:42;33.40;35.30
73572;DHT22;61854;48.510;-2.770;2022-08-19T16:34:09;33.30;30.70
73572;DHT22;61854;48.510;-2.770;2022-08-19T16:36:35;33.00;34.60
73572;DHT22;61854;48.510;-2.770;2022-08-19T16:39:00;32.90;33.10
73572;DHT22;61854;48.510;-2.770;2022-08-19T16:41:26;33.00;39.00
73572;DHT22;61854;48.510;-2.770;2022-08-19T16:43:52;33.20;34.80
73572;DHT22;61854;48.510;-2.770;2022-08-19T16:46:20;33.10;36.90
73572;DHT22;61854;48.510;-2.770;2022-08-19T16:51:13;32.70;36.10
73572;DHT22;61854;48.510;-2.770;2022-08-19T16:53:41;32.80;33.30
73572;DHT22;61854;48.510;-2.770;2022-08-19T16:56:07;32.80;37.50
73572;DHT22;61854;48.510;-2.770;2022-08-19T16:58:34;33.20;39.50
73572;DHT22;61854;48.510;-2.770;2022-08-19T17:01:01;33.60;37.50
73572;DHT22;61854;48.510;-2.770;2022-08-19T17:03:28;33.60;38.00
73572;DHT22;61854;48.510;-2.770;2022-08-19T17:05:56;33.80;36.50
73572;DHT22;61854;48.510;-2.770;2022-08-19T17:08:25;33.60;34.00
73572;DHT22;61854;48.510;-2.770;2022-08-19T17:10:52;33.60;35.70
73572;DHT22;61854;48.510;-2.770;2022-08-19T17:13:19;33.80;36.50
73572;DHT22;61854;48.510;-2.770;2022-08-19T17:15:45;33.80;30.30
73572;DHT22;61854;48.510;-2.770;2022-08-19T19:09:30;20.40;51.10
73572;DHT22;61854;48.510;-2.770;2022-08-19T19:11:59;20.20;53.20
73572;DHT22;61854;48.510;-2.770;2022-08-19T19:14:32;20.00;52.60
73572;DHT22;61854;48.510;-2.770;2022-08-19T19:16:59;20.00;52.10
73572;DHT22;61854;48.510;-2.770;2022-08-19T19:19:26;19.90;52.00
73572;DHT22;61854;48.510;-2.770;2022-08-19T19:21:52;19.80;52.20
73572;DHT22;61854;48.510;-2.770;2022-08-19T19:24:27;19.80;52.40
73572;DHT22;61854;48.510;-2.770;2022-08-19T19:26:55;19.70;52.90
73572;DHT22;61854;48.510;-2.770;2022-08-19T19:29:21;19.70;52.80
73572;DHT22;61854;48.510;-2.770;2022-08-19T19:31:47;19.60;52.70
73572;DHT22;61854;48.510;-2.770;2022-08-19T19:34:16;19.60;52.70
73572;DHT22;61854;48.510;-2.770;2022-08-19T19:36:42;19.50;52.40
73572;DHT22;61854;48.510;-2.770;2022-08-19T19:39:08;19.40;52.50
73572;DHT22;61854;48.510;-2.770;2022-08-19T19:41:34;19.40;52.40
73572;DHT22;61854;48.510;-2.770;2022-08-19T19:44:02;19.30;52.80
73572;DHT22;61854;48.510;-2.770;2022-08-19T19:46:29;19.30;52.60
73572;DHT22;61854;48.510;-2.770;2022-08-19T19:48:56;19.30;52.60
73572;DHT22;61854;48.510;-2.770;2022-08-19T19:51:23;19.20;52.10
73572;DHT22;61854;48.510;-2.770;2022-08-19T19:53:50;19.20;52.40
73572;DHT22;61854;48.510;-2.770;2022-08-19T19:56:18;19.20;52.30
73572;DHT22;61854;48.510;-2.770;2022-08-19T19:58:43;19.20;52.60
73572;DHT22;61854;48.510;-2.770;2022-08-19T20:01:09;19.10;52.80
73572;DHT22;61854;48.510;-2.770;2022-08-19T20:03:40;19.10;52.50
73572;DHT22;61854;48.510;-2.770;2022-08-19T20:06:08;19.00;52.80
73572;DHT22;61854;48.510;-2.770;2022-08-19T20:08:34;19.00;52.80
73572;DHT22;61854;48.510;-2.770;2022-08-19T20:11:33;18.90;52.90
73572;DHT22;61854;48.510;-2.770;2022-08-19T20:14:23;18.90;53.00
73572;DHT22;61854;48.510;-2.770;2022-08-19T20:16:48;18.80;53.30
73572;DHT22;61854;48.510;-2.770;2022-08-19T20:19:16;18.80;53.40
73572;DHT22;61854;48.510;-2.770;2022-08-19T20:21:44;18.70;53.90
73572;DHT22;61854;48.510;-2.770;2022-08-19T20:24:16;18.60;54.30
73572;DHT22;61854;48.510;-2.770;2022-08-19T20:26:43;18.70;54.40
73572;DHT22;61854;48.510;-2.770;2022-08-19T20:29:09;18.70;54.50
73572;DHT22;61854;48.510;-2.770;2022-08-19T20:31:35;18.70;54.30
73572;DHT22;61854;48.510;-2.770;2022-08-19T20:34:01;18.70;54.10
73572;DHT22;61854;48.510;-2.770;2022-08-19T20:36:27;18.70;54.50
73572;DHT22;61854;48.510;-2.770;2022-08-19T20:38:52;18.60;54.50
73572;DHT22;61854;48.510;-2.770;2022-08-19T20:41:18;18.60;54.60
73572;DHT22;61854;48.510;-2.770;2022-08-19T20:43:45;18.60;54.70
73572;DHT22;61854;48.510;-2.770;2022-08-19T20:46:11;18.50;54.60
73572;DHT22;61854;48.510;-2.770;2022-08-19T20:48:37;18.50;55.00
73572;DHT22;61854;48.510;-2.770;2022-08-19T20:51:04;18.50;55.30
73572;DHT22;61854;48.510;-2.770;2022-08-19T20:53:31;18.40;55.40
73572;DHT22;61854;48.510;-2.770;2022-08-19T20:55:56;18.40;55.60
73572;DHT22;61854;48.510;-2.770;2022-08-19T20:58:23;18.40;55.80
73572;DHT22;61854;48.510;-2.770;2022-08-19T21:00:51;18.30;56.00
73572;DHT22;61854;48.510;-2.770;2022-08-19T21:03:20;18.30;56.30
73572;DHT22;61854;48.510;-2.770;2022-08-19T21:05:46;18.30;56.50
73572;DHT22;61854;48.510;-2.770;2022-08-19T21:08:13;18.20;57.00
73572;DHT22;61854;48.510;-2.770;2022-08-19T21:10:40;18.10;57.00
73572;DHT22;61854;48.510;-2.770;2022-08-19T21:13:05;18.10;57.30
73572;DHT22;61854;48.510;-2.770;2022-08-19T21:15:31;18.00;57.80
73572;DHT22;61854;48.510;-2.770;2022-08-19T21:17:57;18.00;58.20
73572;DHT22;61854;48.510;-2.770;2022-08-19T21:20:23;17.90;59.40
73572;DHT22;61854;48.510;-2.770;2022-08-19T21:22:49;17.90;58.50
73572;DHT22;61854;48.510;-2.770;2022-08-19T21:25:15;17.80;58.80
73572;DHT22;61854;48.510;-2.770;2022-08-19T21:27:41;17.80;58.80
73572;DHT22;61854;48.510;-2.770;2022-08-19T21:30:08;17.80;58.90
73572;DHT22;61854;48.510;-2.770;2022-08-19T21:32:34;17.70;58.90
73572;DHT22;61854;48.510;-2.770;2022-08-19T21:35:00;17.70;59.20
73572;DHT22;61854;48.510;-2.770;2022-08-19T21:37:27;17.60;59.10
73572;DHT22;61854;48.510;-2.770;2022-08-19T21:39:54;17.70;59.10
73572;DHT22;61854;48.510;-2.770;2022-08-19T21:42:20;17.60;59.00
73572;DHT22;61854;48.510;-2.770;2022-08-19T21:44:46;17.50;59.20
73572;DHT22;61854;48.510;-2.770;2022-08-19T21:47:12;17.50;59.40
73572;DHT22;61854;48.510;-2.770;2022-08-19T21:49:37;17.50;59.50
73572;DHT22;61854;48.510;-2.770;2022-08-19T21:52:03;17.50;59.80
73572;DHT22;61854;48.510;-2.770;2022-08-19T21:54:30;17.40;59.80
73572;DHT22;61854;48.510;-2.770;2022-08-19T21:56:56;17.50;60.00
73572;DHT22;61854;48.510;-2.770;2022-08-19T21:59:22;17.40;60.00
73572;DHT22;61854;48.510;-2.770;2022-08-19T22:01:48;17.40;60.30
73572;DHT22;61854;48.510;-2.770;2022-08-19T22:04:13;17.30;60.90
73572;DHT22;61854;48.510;-2.770;2022-08-19T22:06:39;17.20;60.90
73572;DHT22;61854;48.510;-2.770;2022-08-19T22:09:04;17.10;61.30
73572;DHT22;61854;48.510;-2.770;2022-08-19T22:11:30;17.10;61.70
73572;DHT22;61854;48.510;-2.770;2022-08-19T22:13:58;17.00;62.00
73572;DHT22;61854;48.510;-2.770;2022-08-19T22:16:24;17.00;62.30
73572;DHT22;61854;48.510;-2.770;2022-08-19T22:18:50;16.90;62.50
73572;DHT22;61854;48.510;-2.770;2022-08-19T22:21:17;16.90;63.10
73572;DHT22;61854;48.510;-2.770;2022-08-19T22:23:45;16.80;63.60
73572;DHT22;61854;48.510;-2.770;2022-08-19T22:26:11;16.70;64.10
73572;DHT22;61854;48.510;-2.770;2022-08-19T22:28:37;16.60;64.20
73572;DHT22;61854;48.510;-2.770;2022-08-19T22:31:03;16.60;64.40
73572;DHT22;61854;48.510;-2.770;2022-08-19T22:33:30;16.60;64.70
73572;DHT22;61854;48.510;-2.770;2022-08-19T22:35:57;16.50;65.00
73572;DHT22;61854;48.510;-2.770;2022-08-19T22:38:23;16.50;65.30
73572;DHT22;61854;48.510;-2.770;2022-08-19T22:40:50;16.40;65.70
73572;DHT22;61854;48.510;-2.770;2022-08-19T22:43:19;16.40;65.80
73572;DHT22;61854;48.510;-2.770;2022-08-19T22:45:46;16.30;66.30
73572;DHT22;61854;48.510;-2.770;2022-08-19T22:48:16;16.30;66.30
73572;DHT22;61854;48.510;-2.770;2022-08-19T22:50:44;16.20;66.40
73572;DHT22;61854;48.510;-2.770;2022-08-19T22:53:32;16.20;66.40
73572;DHT22;61854;48.510;-2.770;2022-08-19T22:55:58;16.20;66.50
73572;DHT22;61854;48.510;-2.770;2022-08-19T22:58:24;16.20;66.80
73572;DHT22;61854;48.510;-2.770;2022-08-19T23:00:50;16.10;66.90
73572;DHT22;61854;48.510;-2.770;2022-08-19T23:03:15;16.10;67.10
73572;DHT22;61854;48.510;-2.770;2022-08-19T23:05:41;16.00;67.00
73572;DHT22;61854;48.510;-2.770;2022-08-19T23:08:07;16.10;67.10
73572;DHT22;61854;48.510;-2.770;2022-08-19T23:10:32;16.00;67.40
73572;DHT22;61854;48.510;-2.770;2022-08-19T23:12:58;16.00;67.70
73572;DHT22;61854;48.510;-2.770;2022-08-19T23:15:27;15.90;68.60
73572;DHT22;61854;48.510;-2.770;2022-08-19T23:17:56;15.90;67.90
73572;DHT22;61854;48.510;-2.770;2022-08-19T23:20:23;15.80;67.40
73572;DHT22;61854;48.510;-2.770;2022-08-19T23:22:52;15.80;67.60
73572;DHT22;61854;48.510;-2.770;2022-08-19T23:25:21;15.80;67.60
73572;DHT22;61854;48.510;-2.770;2022-08-19T23:27:47;15.80;67.30
73572;DHT22;61854;48.510;-2.770;2022-08-19T23:30:34;15.80;67.30
73572;DHT22;61854;48.510;-2.770;2022-08-19T23:33:04;15.80;67.50
73572;DHT22;61854;48.510;-2.770;2022-08-19T23:35:35;15.80;67.30
73572;DHT22;61854;48.510;-2.770;2022-08-19T23:38:02;15.90;67.10
73572;DHT22;61854;48.510;-2.770;2022-08-19T23:40:28;15.90;66.80
73572;DHT22;61854;48.510;-2.770;2022-08-19T23:42:54;15.90;67.20
73572;DHT22;61854;48.510;-2.770;2022-08-19T23:45:22;16.00;66.80
73572;DHT22;61854;48.510;-2.770;2022-08-19T23:47:48;16.00;66.70
73572;DHT22;61854;48.510;-2.770;2022-08-19T23:50:14;16.10;66.50
73572;DHT22;61854;48.510;-2.770;2022-08-19T23:52:52;16.00;66.50
73572;DHT22;61854;48.510;-2.770;2022-08-19T23:55:23;16.10;66.80
73572;DHT22;61854;48.510;-2.770;2022-08-19T23:57:50;16.10;66.60
